sensor_id;sensor_type;location;lat;lon;timestamp;temperature;humidity
802;DHT22;383;48.766;9.270;2022-08-25T00:01:24;20.60;84.00
802;DHT22;383;48.766;9.270;2022-08-25T00:03:51;20.60;83.90
802;DHT22;383;48.766;9.270;2022-08-25T00:06:18;20.60;84.00
802;DHT22;383;48.766;9.270;2022-08-25T00:08:45;20.50;84.10
802;DHT22;383;48.766;9.270;2022-08-25T00:11:15;20.50;84.30
802;DHT22;383;48.766;9.270;2022-08-25T00:13:45;20.40;84.80
802;DHT22;383;48.766;9.270;2022-08-25T00:16:13;20.40;84.80
802;DHT22;383;48.766;9.270;2022-08-25T00:18:42;20.40;85.20
802;DHT22;383;48.766;9.270;2022-08-25T00:21:10;20.30;85.20
802;DHT22;383;48.766;9.270;2022-08-25T00:23:37;20.30;85.50
802;DHT22;383;48.766;9.270;2022-08-25T00:26:05;20.30;85.50
802;DHT22;383;48.766;9.270;2022-08-25T00:28:32;20.30;85.30
802;DHT22;383;48.766;9.270;2022-08-25T00:31:02;20.30;85.30
802;DHT22;383;48.766;9.270;2022-08-25T00:33:29;20.20;85.60
802;DHT22;383;48.766;9.270;2022-08-25T00:35:56;20.20;85.60
802;DHT22;383;48.766;9.270;2022-08-25T00:38:24;20.20;85.90
802;DHT22;383;48.766;9.270;2022-08-25T00:40:52;20.20;86.00
802;DHT22;383;48.766;9.270;2022-08-25T00:43:34;20.10;86.40
802;DHT22;383;48.766;9.270;2022-08-25T00:46:04;20.00;86.80
802;DHT22;383;48.766;9.270;2022-08-25T00:48:30;20.10;86.90
802;DHT22;383;48.766;9.270;2022-08-25T00:50:57;20.00;86.90
802;DHT22;383;48.766;9.270;2022-08-25T00:53:24;20.00;87.20
802;DHT22;383;48.766;9.270;2022-08-25T00:55:51;19.90;87.60
802;DHT22;383;48.766;9.270;2022-08-25T00:58:22;19.90;87.70
802;DHT22;383;48.766;9.270;2022-08-25T01:00:52;19.90;87.80
802;DHT22;383;48.766;9.270;2022-08-25T01:03:23;19.80;87.80
802;DHT22;383;48.766;9.270;2022-08-25T01:05:50;19.80;88.00
802;DHT22;383;48.766;9.270;2022-08-25T01:08:18;19.80;88.20
802;DHT22;383;48.766;9.270;2022-08-25T01:10:48;19.80;88.20
802;DHT22;383;48.766;9.270;2022-08-25T01:13:18;19.70;88.40
802;DHT22;383;48.766;9.270;2022-08-25T01:15:47;19.70;88.20
802;DHT22;383;48.766;9.270;2022-08-25T01:18:14;19.70;88.40
802;DHT22;383;48.766;9.270;2022-08-25T01:20:42;19.60;88.80
802;DHT22;383;48.766;9.270;2022-08-25T01:23:12;19.60;88.80
802;DHT22;383;48.766;9.270;2022-08-25T01:25:46;19.60;88.80
802;DHT22;383;48.766;9.270;2022-08-25T01:28:14;19.60;88.90
802;DHT22;383;48.766;9.270;2022-08-25T01:30:41;19.60;88.80
802;DHT22;383;48.766;9.270;2022-08-25T01:33:09;19.60;88.90
802;DHT22;383;48.766;9.270;2022-08-25T01:35:38;19.60;89.00
802;DHT22;383;48.766;9.270;2022-08-25T01:38:07;19.50;89.30
802;DHT22;383;48.766;9.270;2022-08-25T01:40:37;19.60;89.30
802;DHT22;383;48.766;9.270;2022-08-25T01:43:15;19.50;89.30
802;DHT22;383;48.766;9.270;2022-08-25T01:45:46;19.40;89.60
802;DHT22;383;48.766;9.270;2022-08-25T01:48:14;19.40;89.70
802;DHT22;383;48.766;9.270;2022-08-25T01:50:42;19.40;89.80
802;DHT22;383;48.766;9.270;2022-08-25T01:53:12;19.40;90.10
802;DHT22;383;48.766;9.270;2022-08-25T01:55:41;19.40;90.00
802;DHT22;383;48.766;9.270;2022-08-25T01:58:17;19.50;89.80
802;DHT22;383;48.766;9.270;2022-08-25T02:00:45;19.40;90.00
802;DHT22;383;48.766;9.270;2022-08-25T02:03:12;19.30;90.30
802;DHT22;383;48.766;9.270;2022-08-25T02:05:39;19.30;90.50
802;DHT22;383;48.766;9.270;2022-08-25T02:08:06;19.20;90.70
802;DHT22;383;48.766;9.270;2022-08-25T02:10:32;19.20;90.90
802;DHT22;383;48.766;9.270;2022-08-25T02:13:01;19.20;91.10
802;DHT22;383;48.766;9.270;2022-08-25T02:15:27;19.20;91.20
802;DHT22;383;48.766;9.270;2022-08-25T02:17:54;19.20;91.20
802;DHT22;383;48.766;9.270;2022-08-25T02:20:22;19.10;91.50
802;DHT22;383;48.766;9.270;2022-08-25T02:22:49;19.10;91.60
802;DHT22;383;48.766;9.270;2022-08-25T02:25:17;19.00;91.80
802;DHT22;383;48.766;9.270;2022-08-25T02:27:44;19.00;92.10
802;DHT22;383;48.766;9.270;2022-08-25T02:30:13;19.00;92.20
802;DHT22;383;48.766;9.270;2022-08-25T02:32:40;18.90;92.20
802;DHT22;383;48.766;9.270;2022-08-25T02:35:08;18.90;92.30
802;DHT22;383;48.766;9.270;2022-08-25T02:37:35;18.90;92.30
802;DHT22;383;48.766;9.270;2022-08-25T02:40:03;19.00;92.20
802;DHT22;383;48.766;9.270;2022-08-25T02:42:30;19.00;92.10
802;DHT22;383;48.766;9.270;2022-08-25T02:44:57;19.00;92.20
802;DHT22;383;48.766;9.270;2022-08-25T02:47:25;19.00;92.10
802;DHT22;383;48.766;9.270;2022-08-25T02:49:52;19.00;92.10
802;DHT22;383;48.766;9.270;2022-08-25T02:52:20;18.80;92.30
802;DHT22;383;48.766;9.270;2022-08-25T02:54:46;18.70;92.80
802;DHT22;383;48.766;9.270;2022-08-25T02:57:13;18.70;92.80
802;DHT22;383;48.766;9.270;2022-08-25T02:59:40;18.70;93.00
802;DHT22;383;48.766;9.270;2022-08-25T03:02:07;18.70;93.00
802;DHT22;383;48.766;9.270;2022-08-25T03:04:35;18.60;93.00
802;DHT22;383;48.766;9.270;2022-08-25T03:07:02;18.60;93.30
802;DHT22;383;48.766;9.270;2022-08-25T03:09:29;18.60;93.10
802;DHT22;383;48.766;9.270;2022-08-25T03:11:56;18.60;93.10
802;DHT22;383;48.766;9.270;2022-08-25T03:14:23;18.60;93.20
802;DHT22;383;48.766;9.270;2022-08-25T03:16:50;18.60;93.20
802;DHT22;383;48.766;9.270;2022-08-25T03:19:16;18.60;93.30
802;DHT22;383;48.766;9.270;2022-08-25T03:21:45;18.50;93.20
802;DHT22;383;48.766;9.270;2022-08-25T03:24:11;18.50;93.50
802;DHT22;383;48.766;9.270;2022-08-25T03:26:38;18.50;93.50
802;DHT22;383;48.766;9.270;2022-08-25T03:29:21;18.50;93.30
802;DHT22;383;48.766;9.270;2022-08-25T03:31:48;18.60;93.30
802;DHT22;383;48.766;9.270;2022-08-25T03:34:16;18.60;93.20
802;DHT22;383;48.766;9.270;2022-08-25T03:36:45;18.60;93.10
802;DHT22;383;48.766;9.270;2022-08-25T03:39:13;18.60;93.20
802;DHT22;383;48.766;9.270;2022-08-25T03:41:40;18.60;93.20
802;DHT22;383;48.766;9.270;2022-08-25T03:44:07;18.60;93.20
802;DHT22;383;48.766;9.270;2022-08-25T03:46:38;18.60;93.20
802;DHT22;383;48.766;9.270;2022-08-25T03:49:07;18.50;93.30
802;DHT22;383;48.766;9.270;2022-08-25T03:51:37;18.50;93.40
802;DHT22;383;48.766;9.270;2022-08-25T03:54:08;18.40;93.70
802;DHT22;383;48.766;9.270;2022-08-25T03:56:35;18.40;93.70
802;DHT22;383;48.766;9.270;2022-08-25T03:59:02;18.40;93.80
802;DHT22;383;48.766;9.270;2022-08-25T04:01:29;18.40;93.80
802;DHT22;383;48.766;9.270;2022-08-25T04:03:55;18.40;93.80
802;DHT22;383;48.766;9.270;2022-08-25T04:06:22;18.30;93.90
802;DHT22;383;48.766;9.270;2022-08-25T04:08:49;18.30;94.20
802;DHT22;383;48.766;9.270;2022-08-25T04:11:20;18.30;94.10
802;DHT22;383;48.766;9.270;2022-08-25T04:13:47;18.20;94.20
802;DHT22;383;48.766;9.270;2022-08-25T04:16:17;18.20;94.50
802;DHT22;383;48.766;9.270;2022-08-25T04:18:45;18.20;94.50
802;DHT22;383;48.766;9.270;2022-08-25T04:21:12;18.10;94.80
802;DHT22;383;48.766;9.270;2022-08-25T04:23:41;18.10;94.90
802;DHT22;383;48.766;9.270;2022-08-25T04:26:09;18.20;94.70
802;DHT22;383;48.766;9.270;2022-08-25T04:28:38;18.10;95.00
802;DHT22;383;48.766;9.270;2022-08-25T04:31:06;18.10;94.90
802;DHT22;383;48.766;9.270;2022-08-25T04:33:33;18.10;95.00
802;DHT22;383;48.766;9.270;2022-08-25T04:36:00;18.00;95.10
802;DHT22;383;48.766;9.270;2022-08-25T04:38:26;18.00;95.20
802;DHT22;383;48.766;9.270;2022-08-25T04:40:57;18.00;95.00
802;DHT22;383;48.766;9.270;2022-08-25T04:43:23;18.10;94.70
802;DHT22;383;48.766;9.270;2022-08-25T04:45:52;18.20;94.50
802;DHT22;383;48.766;9.270;2022-08-25T04:48:20;18.20;94.40
802;DHT22;383;48.766;9.270;2022-08-25T04:50:47;18.20;94.20
802;DHT22;383;48.766;9.270;2022-08-25T04:53:14;18.10;94.40
802;DHT22;383;48.766;9.270;2022-08-25T04:55:41;18.10;94.50
802;DHT22;383;48.766;9.270;2022-08-25T04:58:09;18.10;94.70
802;DHT22;383;48.766;9.270;2022-08-25T05:00:36;18.10;94.40
802;DHT22;383;48.766;9.270;2022-08-25T05:03:05;18.10;94.40
802;DHT22;383;48.766;9.270;2022-08-25T05:05:35;18.20;94.50
802;DHT22;383;48.766;9.270;2022-08-25T05:08:03;18.10;94.50
802;DHT22;383;48.766;9.270;2022-08-25T05:10:30;18.10;94.70
802;DHT22;383;48.766;9.270;2022-08-25T05:12:56;18.10;94.80
802;DHT22;383;48.766;9.270;2022-08-25T05:15:25;18.10;94.90
802;DHT22;383;48.766;9.270;2022-08-25T05:18:10;18.10;94.90
802;DHT22;383;48.766;9.270;2022-08-25T05:20:37;18.10;95.10
802;DHT22;383;48.766;9.270;2022-08-25T05:23:04;18.10;94.90
802;DHT22;383;48.766;9.270;2022-08-25T05:25:31;18.10;94.90
802;DHT22;383;48.766;9.270;2022-08-25T05:27:58;18.10;95.00
802;DHT22;383;48.766;9.270;2022-08-25T05:30:25;18.20;94.80
802;DHT22;383;48.766;9.270;2022-08-25T05:32:52;18.20;94.80
802;DHT22;383;48.766;9.270;2022-08-25T05:35:21;18.30;94.80
802;DHT22;383;48.766;9.270;2022-08-25T05:37:47;18.30;94.80
802;DHT22;383;48.766;9.270;2022-08-25T05:40:14;18.30;95.10
802;DHT22;383;48.766;9.270;2022-08-25T05:42:41;18.30;95.00
802;DHT22;383;48.766;9.270;2022-08-25T05:45:08;18.30;95.10
802;DHT22;383;48.766;9.270;2022-08-25T05:47:35;18.30;95.30
802;DHT22;383;48.766;9.270;2022-08-25T05:50:02;18.30;95.30
802;DHT22;383;48.766;9.270;2022-08-25T05:52:30;18.30;95.30
802;DHT22;383;48.766;9.270;2022-08-25T05:54:57;18.40;95.40
802;DHT22;383;48.766;9.270;2022-08-25T05:57:24;18.40;95.30
802;DHT22;383;48.766;9.270;2022-08-25T05:59:50;18.50;95.10
802;DHT22;383;48.766;9.270;2022-08-25T06:02:17;18.50;95.30
802;DHT22;383;48.766;9.270;2022-08-25T06:05:01;18.50;95.20
802;DHT22;383;48.766;9.270;2022-08-25T06:07:29;18.60;95.30
802;DHT22;383;48.766;9.270;2022-08-25T06:09:56;18.60;95.20
802;DHT22;383;48.766;9.270;2022-08-25T06:12:23;18.70;95.20
802;DHT22;383;48.766;9.270;2022-08-25T06:14:50;18.80;95.20
802;DHT22;383;48.766;9.270;2022-08-25T06:17:17;18.80;95.10
802;DHT22;383;48.766;9.270;2022-08-25T06:19:43;18.90;95.00
802;DHT22;383;48.766;9.270;2022-08-25T06:22:10;19.00;94.90
802;DHT22;383;48.766;9.270;2022-08-25T06:24:38;19.10;94.60
802;DHT22;383;48.766;9.270;2022-08-25T06:27:05;19.20;94.30
802;DHT22;383;48.766;9.270;2022-08-25T06:29:32;19.30;94.00
802;DHT22;383;48.766;9.270;2022-08-25T06:31:58;19.40;93.70
802;DHT22;383;48.766;9.270;2022-08-25T06:34:25;19.50;93.40
802;DHT22;383;48.766;9.270;2022-08-25T06:36:52;19.60;93.10
802;DHT22;383;48.766;9.270;2022-08-25T06:39:19;19.70;92.80
802;DHT22;383;48.766;9.270;2022-08-25T06:41:51;19.70;92.60
802;DHT22;383;48.766;9.270;2022-08-25T06:44:18;19.90;92.20
802;DHT22;383;48.766;9.270;2022-08-25T06:46:45;20.00;92.10
802;DHT22;383;48.766;9.270;2022-08-25T06:49:12;20.10;91.60
802;DHT22;383;48.766;9.270;2022-08-25T06:51:38;20.20;91.30
802;DHT22;383;48.766;9.270;2022-08-25T06:54:07;20.30;90.90
802;DHT22;383;48.766;9.270;2022-08-25T06:56:34;20.40;90.70
802;DHT22;383;48.766;9.270;2022-08-25T06:59:04;20.50;90.50
802;DHT22;383;48.766;9.270;2022-08-25T07:01:31;20.50;89.80
802;DHT22;383;48.766;9.270;2022-08-25T07:04:00;20.70;88.20
802;DHT22;383;48.766;9.270;2022-08-25T07:06:30;20.80;88.40
802;DHT22;383;48.766;9.270;2022-08-25T07:08:57;20.90;88.40
802;DHT22;383;48.766;9.270;2022-08-25T07:11:24;21.00;88.00
802;DHT22;383;48.766;9.270;2022-08-25T07:13:51;21.10;87.30
802;DHT22;383;48.766;9.270;2022-08-25T07:16:20;21.30;86.80
802;DHT22;383;48.766;9.270;2022-08-25T07:18:47;21.40;86.00
802;DHT22;383;48.766;9.270;2022-08-25T07:21:14;21.50;85.90
802;DHT22;383;48.766;9.270;2022-08-25T07:23:41;21.60;85.70
802;DHT22;383;48.766;9.270;2022-08-25T07:26:10;21.70;84.70
802;DHT22;383;48.766;9.270;2022-08-25T07:28:37;21.90;84.30
802;DHT22;383;48.766;9.270;2022-08-25T07:31:04;21.90;84.40
802;DHT22;383;48.766;9.270;2022-08-25T07:33:32;22.10;84.00
802;DHT22;383;48.766;9.270;2022-08-25T07:35:58;22.20;84.00
802;DHT22;383;48.766;9.270;2022-08-25T07:38:24;22.30;84.00
802;DHT22;383;48.766;9.270;2022-08-25T07:40:51;22.40;83.50
802;DHT22;383;48.766;9.270;2022-08-25T07:43:20;22.50;82.70
802;DHT22;383;48.766;9.270;2022-08-25T07:45:47;22.70;82.20
802;DHT22;383;48.766;9.270;2022-08-25T07:48:15;22.80;80.70
802;DHT22;383;48.766;9.270;2022-08-25T07:50:46;22.90;80.80
802;DHT22;383;48.766;9.270;2022-08-25T07:53:14;23.10;80.60
802;DHT22;383;48.766;9.270;2022-08-25T07:55:42;23.20;79.90
802;DHT22;383;48.766;9.270;2022-08-25T07:58:09;23.30;79.30
802;DHT22;383;48.766;9.270;2022-08-25T08:00:37;23.40;79.00
802;DHT22;383;48.766;9.270;2022-08-25T08:03:07;23.60;78.10
802;DHT22;383;48.766;9.270;2022-08-25T08:05:34;23.80;77.10
802;DHT22;383;48.766;9.270;2022-08-25T08:08:03;24.00;77.30
802;DHT22;383;48.766;9.270;2022-08-25T08:10:30;24.10;77.30
802;DHT22;383;48.766;9.270;2022-08-25T08:12:57;24.20;77.30
802;DHT22;383;48.766;9.270;2022-08-25T08:15:24;24.40;76.20
802;DHT22;383;48.766;9.270;2022-08-25T08:17:50;24.50;76.00
802;DHT22;383;48.766;9.270;2022-08-25T08:20:17;24.70;74.60
802;DHT22;383;48.766;9.270;2022-08-25T08:22:45;24.90;74.60
802;DHT22;383;48.766;9.270;2022-08-25T08:25:13;25.00;74.20
802;DHT22;383;48.766;9.270;2022-08-25T08:27:40;25.20;73.30
802;DHT22;383;48.766;9.270;2022-08-25T08:30:08;25.40;71.70
802;DHT22;383;48.766;9.270;2022-08-25T08:32:35;25.50;71.20
802;DHT22;383;48.766;9.270;2022-08-25T08:35:02;25.70;70.90
802;DHT22;383;48.766;9.270;2022-08-25T08:37:30;25.70;71.20
802;DHT22;383;48.766;9.270;2022-08-25T08:39:57;25.80;70.80
802;DHT22;383;48.766;9.270;2022-08-25T08:42:48;25.80;70.50
802;DHT22;383;48.766;9.270;2022-08-25T08:45:31;26.00;69.30
802;DHT22;383;48.766;9.270;2022-08-25T08:48:18;26.20;68.60
802;DHT22;383;48.766;9.270;2022-08-25T08:50:53;26.30;68.70
802;DHT22;383;48.766;9.270;2022-08-25T08:53:26;26.50;68.00
802;DHT22;383;48.766;9.270;2022-08-25T08:55:57;26.60;67.80
802;DHT22;383;48.766;9.270;2022-08-25T08:58:29;26.80;66.00
802;DHT22;383;48.766;9.270;2022-08-25T09:00:57;26.80;65.80
802;DHT22;383;48.766;9.270;2022-08-25T09:03:31;26.90;64.90
802;DHT22;383;48.766;9.270;2022-08-25T09:06:04;27.00;65.20
802;DHT22;383;48.766;9.270;2022-08-25T09:08:33;27.00;65.60
802;DHT22;383;48.766;9.270;2022-08-25T09:11:05;27.10;65.20
802;DHT22;383;48.766;9.270;2022-08-25T09:13:45;27.10;65.20
802;DHT22;383;48.766;9.270;2022-08-25T09:16:23;27.20;65.00
802;DHT22;383;48.766;9.270;2022-08-25T09:19:27;27.30;64.20
802;DHT22;383;48.766;9.270;2022-08-25T09:22:03;27.50;62.90
802;DHT22;383;48.766;9.270;2022-08-25T09:24:42;27.50;62.70
802;DHT22;383;48.766;9.270;2022-08-25T09:27:20;27.60;63.10
802;DHT22;383;48.766;9.270;2022-08-25T09:29:58;27.80;62.70
802;DHT22;383;48.766;9.270;2022-08-25T09:32:27;27.80;62.20
802;DHT22;383;48.766;9.270;2022-08-25T09:34:54;27.90;61.10
802;DHT22;383;48.766;9.270;2022-08-25T09:37:22;28.00;61.50
802;DHT22;383;48.766;9.270;2022-08-25T09:39:49;28.00;61.30
802;DHT22;383;48.766;9.270;2022-08-25T09:42:17;28.10;60.50
802;DHT22;383;48.766;9.270;2022-08-25T09:44:45;28.20;60.20
802;DHT22;383;48.766;9.270;2022-08-25T09:47:24;28.30;59.80
802;DHT22;383;48.766;9.270;2022-08-25T09:49:56;28.20;59.70
802;DHT22;383;48.766;9.270;2022-08-25T09:52:35;28.20;61.00
802;DHT22;383;48.766;9.270;2022-08-25T09:55:30;28.30;60.50
802;DHT22;383;48.766;9.270;2022-08-25T09:57:58;28.40;59.00
802;DHT22;383;48.766;9.270;2022-08-25T10:00:28;28.60;58.60
802;DHT22;383;48.766;9.270;2022-08-25T10:03:19;28.70;58.70
802;DHT22;383;48.766;9.270;2022-08-25T10:05:58;28.80;56.20
802;DHT22;383;48.766;9.270;2022-08-25T10:08:30;28.80;57.60
802;DHT22;383;48.766;9.270;2022-08-25T10:10:59;28.80;57.60
802;DHT22;383;48.766;9.270;2022-08-25T10:13:36;28.90;58.20
802;DHT22;383;48.766;9.270;2022-08-25T10:16:07;29.00;57.70
802;DHT22;383;48.766;9.270;2022-08-25T10:18:35;29.00;57.60
802;DHT22;383;48.766;9.270;2022-08-25T10:21:08;29.00;58.30
802;DHT22;383;48.766;9.270;2022-08-25T10:23:38;29.20;58.00
802;DHT22;383;48.766;9.270;2022-08-25T10:26:16;29.30;57.00
802;DHT22;383;48.766;9.270;2022-08-25T10:28:53;29.30;56.10
802;DHT22;383;48.766;9.270;2022-08-25T10:31:32;29.40;56.70
802;DHT22;383;48.766;9.270;2022-08-25T10:34:13;29.60;55.10
802;DHT22;383;48.766;9.270;2022-08-25T10:36:47;29.70;55.00
802;DHT22;383;48.766;9.270;2022-08-25T10:39:27;29.70;54.40
802;DHT22;383;48.766;9.270;2022-08-25T10:42:02;29.70;55.20
802;DHT22;383;48.766;9.270;2022-08-25T10:44:35;29.80;54.90
802;DHT22;383;48.766;9.270;2022-08-25T10:47:49;29.90;53.60
802;DHT22;383;48.766;9.270;2022-08-25T10:50:27;30.00;54.40
802;DHT22;383;48.766;9.270;2022-08-25T10:53:11;30.10;52.80
802;DHT22;383;48.766;9.270;2022-08-25T10:55:46;30.30;51.00
802;DHT22;383;48.766;9.270;2022-08-25T11:00:58;30.60;51.80
802;DHT22;383;48.766;9.270;2022-08-25T11:03:39;30.70;51.00
802;DHT22;383;48.766;9.270;2022-08-25T11:06:14;30.80;50.80
802;DHT22;383;48.766;9.270;2022-08-25T11:08:46;30.90;51.00
802;DHT22;383;48.766;9.270;2022-08-25T11:11:19;30.90;50.30
802;DHT22;383;48.766;9.270;2022-08-25T11:13:53;30.90;49.90
802;DHT22;383;48.766;9.270;2022-08-25T11:16:30;31.00;50.30
802;DHT22;383;48.766;9.270;2022-08-25T11:19:04;31.00;50.40
802;DHT22;383;48.766;9.270;2022-08-25T11:21:46;31.10;50.40
802;DHT22;383;48.766;9.270;2022-08-25T11:24:35;31.10;50.20
802;DHT22;383;48.766;9.270;2022-08-25T11:27:08;31.30;49.80
802;DHT22;383;48.766;9.270;2022-08-25T11:29:37;31.30;49.50
802;DHT22;383;48.766;9.270;2022-08-25T11:32:06;31.40;49.20
802;DHT22;383;48.766;9.270;2022-08-25T11:34:35;31.50;48.80
802;DHT22;383;48.766;9.270;2022-08-25T11:37:06;31.50;49.30
802;DHT22;383;48.766;9.270;2022-08-25T11:39:54;31.60;48.80
802;DHT22;383;48.766;9.270;2022-08-25T11:42:34;31.60;47.90
802;DHT22;383;48.766;9.270;2022-08-25T11:45:11;31.60;47.60
802;DHT22;383;48.766;9.270;2022-08-25T11:47:59;31.60;48.40
802;DHT22;383;48.766;9.270;2022-08-25T11:50:31;31.50;47.70
802;DHT22;383;48.766;9.270;2022-08-25T11:53:15;31.50;48.10
802;DHT22;383;48.766;9.270;2022-08-25T11:55:48;31.50;48.20
802;DHT22;383;48.766;9.270;2022-08-25T11:58:37;31.50;47.80
802;DHT22;383;48.766;9.270;2022-08-25T12:01:08;31.40;49.20
802;DHT22;383;48.766;9.270;2022-08-25T12:03:49;31.60;48.40
802;DHT22;383;48.766;9.270;2022-08-25T12:06:28;31.60;48.40
802;DHT22;383;48.766;9.270;2022-08-25T12:09:16;31.70;47.80
802;DHT22;383;48.766;9.270;2022-08-25T12:11:50;31.70;46.30
802;DHT22;383;48.766;9.270;2022-08-25T12:14:42;31.70;46.20
802;DHT22;383;48.766;9.270;2022-08-25T12:46:34;32.80;45.30
802;DHT22;383;48.766;9.270;2022-08-25T12:49:02;32.90;44.10
802;DHT22;383;48.766;9.270;2022-08-25T12:51:50;33.10;44.50
802;DHT22;383;48.766;9.270;2022-08-25T12:54:23;33.10;43.70
802;DHT22;383;48.766;9.270;2022-08-25T12:56:54;33.10;44.60
802;DHT22;383;48.766;9.270;2022-08-25T12:59:23;33.00;45.10
802;DHT22;383;48.766;9.270;2022-08-25T13:02:13;33.10;44.60
802;DHT22;383;48.766;9.270;2022-08-25T13:05:28;33.20;45.00
802;DHT22;383;48.766;9.270;2022-08-25T13:08:16;33.40;44.60
802;DHT22;383;48.766;9.270;2022-08-25T13:10:50;33.40;44.70
802;DHT22;383;48.766;9.270;2022-08-25T13:13:30;33.50;45.50
802;DHT22;383;48.766;9.270;2022-08-25T13:16:03;33.80;45.20
802;DHT22;383;48.766;9.270;2022-08-25T13:18:33;33.90;44.00
802;DHT22;383;48.766;9.270;2022-08-25T13:21:04;34.00;43.30
802;DHT22;383;48.766;9.270;2022-08-25T13:23:36;34.10;42.40
802;DHT22;383;48.766;9.270;2022-08-25T13:26:04;34.20;42.60
802;DHT22;383;48.766;9.270;2022-08-25T13:28:33;34.10;42.80
802;DHT22;383;48.766;9.270;2022-08-25T13:31:05;33.80;43.30
802;DHT22;383;48.766;9.270;2022-08-25T13:33:37;33.80;42.80
802;DHT22;383;48.766;9.270;2022-08-25T13:36:03;33.80;42.00
802;DHT22;383;48.766;9.270;2022-08-25T13:38:49;33.90;42.60
802;DHT22;383;48.766;9.270;2022-08-25T13:41:18;34.10;42.60
802;DHT22;383;48.766;9.270;2022-08-25T13:43:45;34.10;43.30
802;DHT22;383;48.766;9.270;2022-08-25T13:46:17;34.20;42.60
802;DHT22;383;48.766;9.270;2022-08-25T13:48:45;34.30;42.40
802;DHT22;383;48.766;9.270;2022-08-25T13:51:20;34.40;42.60
802;DHT22;383;48.766;9.270;2022-08-25T13:53:50;34.50;42.20
802;DHT22;383;48.766;9.270;2022-08-25T13:56:27;34.60;41.50
802;DHT22;383;48.766;9.270;2022-08-25T13:58:56;34.70;41.40
802;DHT22;383;48.766;9.270;2022-08-25T14:01:25;34.90;41.50
802;DHT22;383;48.766;9.270;2022-08-25T14:03:56;34.90;41.70
802;DHT22;383;48.766;9.270;2022-08-25T14:06:24;34.80;42.10
802;DHT22;383;48.766;9.270;2022-08-25T14:09:10;34.80;41.90
802;DHT22;383;48.766;9.270;2022-08-25T14:11:43;34.90;41.50
802;DHT22;383;48.766;9.270;2022-08-25T14:14:12;35.00;41.00
802;DHT22;383;48.766;9.270;2022-08-25T14:16:58;35.10;41.70
802;DHT22;383;48.766;9.270;2022-08-25T14:19:28;35.40;41.40
802;DHT22;383;48.766;9.270;2022-08-25T14:21:56;35.50;40.20
802;DHT22;383;48.766;9.270;2022-08-25T14:24:30;35.70;39.90
802;DHT22;383;48.766;9.270;2022-08-25T14:26:58;35.80;39.60
802;DHT22;383;48.766;9.270;2022-08-25T14:29:25;35.90;39.40
802;DHT22;383;48.766;9.270;2022-08-25T14:31:52;36.00;39.30
802;DHT22;383;48.766;9.270;2022-08-25T14:34:24;36.10;39.60
802;DHT22;383;48.766;9.270;2022-08-25T14:36:53;36.20;39.30
802;DHT22;383;48.766;9.270;2022-08-25T14:39:19;36.20;39.30
802;DHT22;383;48.766;9.270;2022-08-25T14:41:47;36.30;39.40
802;DHT22;383;48.766;9.270;2022-08-25T14:44:15;36.10;38.80
802;DHT22;383;48.766;9.270;2022-08-25T14:46:44;35.90;39.30
802;DHT22;383;48.766;9.270;2022-08-25T14:49:17;35.90;39.60
802;DHT22;383;48.766;9.270;2022-08-25T14:51:44;36.00;40.00
802;DHT22;383;48.766;9.270;2022-08-25T14:54:13;36.20;38.90
802;DHT22;383;48.766;9.270;2022-08-25T14:56:43;36.30;39.10
802;DHT22;383;48.766;9.270;2022-08-25T14:59:11;36.10;39.00
802;DHT22;383;48.766;9.270;2022-08-25T15:01:37;36.00;39.50
802;DHT22;383;48.766;9.270;2022-08-25T15:04:07;35.80;39.10
802;DHT22;383;48.766;9.270;2022-08-25T15:06:36;35.60;40.00
802;DHT22;383;48.766;9.270;2022-08-25T15:09:03;35.40;40.40
802;DHT22;383;48.766;9.270;2022-08-25T15:11:42;35.30;40.50
802;DHT22;383;48.766;9.270;2022-08-25T15:14:10;35.30;40.60
802;DHT22;383;48.766;9.270;2022-08-25T15:16:39;35.30;40.10
802;DHT22;383;48.766;9.270;2022-08-25T15:19:09;35.30;40.50
802;DHT22;383;48.766;9.270;2022-08-25T15:21:39;35.40;40.50
802;DHT22;383;48.766;9.270;2022-08-25T15:24:07;35.30;40.50
802;DHT22;383;48.766;9.270;2022-08-25T15:26:38;35.30;40.40
802;DHT22;383;48.766;9.270;2022-08-25T15:29:07;35.10;41.00
802;DHT22;383;48.766;9.270;2022-08-25T15:31:33;35.00;41.50
802;DHT22;383;48.766;9.270;2022-08-25T15:34:00;34.90;41.00
802;DHT22;383;48.766;9.270;2022-08-25T15:36:27;34.70;41.50
802;DHT22;383;48.766;9.270;2022-08-25T15:38:53;34.60;41.50
802;DHT22;383;48.766;9.270;2022-08-25T15:41:20;34.60;41.00
802;DHT22;383;48.766;9.270;2022-08-25T15:43:47;34.60;41.50
802;DHT22;383;48.766;9.270;2022-08-25T15:46:20;34.60;41.10
802;DHT22;383;48.766;9.270;2022-08-25T15:48:48;34.50;41.20
802;DHT22;383;48.766;9.270;2022-08-25T15:51:16;34.40;41.50
802;DHT22;383;48.766;9.270;2022-08-25T15:53:43;34.30;42.20
802;DHT22;383;48.766;9.270;2022-08-25T15:56:10;34.30;41.70
802;DHT22;383;48.766;9.270;2022-08-25T15:58:38;34.30;41.10
802;DHT22;383;48.766;9.270;2022-08-25T16:01:05;34.20;41.20
802;DHT22;383;48.766;9.270;2022-08-25T16:03:33;34.30;41.10
802;DHT22;383;48.766;9.270;2022-08-25T16:06:02;34.30;41.20
802;DHT22;383;48.766;9.270;2022-08-25T16:08:29;34.20;41.50
802;DHT22;383;48.766;9.270;2022-08-25T16:10:56;34.20;42.00
802;DHT22;383;48.766;9.270;2022-08-25T16:13:23;34.00;42.80
802;DHT22;383;48.766;9.270;2022-08-25T16:15:49;33.80;43.00
802;DHT22;383;48.766;9.270;2022-08-25T16:18:16;33.80;43.50
802;DHT22;383;48.766;9.270;2022-08-25T16:20:46;33.70;43.10
802;DHT22;383;48.766;9.270;2022-08-25T16:23:15;33.60;43.20
802;DHT22;383;48.766;9.270;2022-08-25T16:25:43;33.50;43.70
802;DHT22;383;48.766;9.270;2022-08-25T16:28:11;33.40;43.50
802;DHT22;383;48.766;9.270;2022-08-25T16:30:38;33.10;43.80
802;DHT22;383;48.766;9.270;2022-08-25T16:33:05;32.90;44.30
802;DHT22;383;48.766;9.270;2022-08-25T16:35:33;32.80;44.70
802;DHT22;383;48.766;9.270;2022-08-25T16:38:01;32.70;44.80
802;DHT22;383;48.766;9.270;2022-08-25T16:46:26;32.40;45.90
802;DHT22;383;48.766;9.270;2022-08-25T16:48:53;32.10;46.20
802;DHT22;383;48.766;9.270;2022-08-25T16:51:21;31.90;46.20
802;DHT22;383;48.766;9.270;2022-08-25T16:53:49;31.80;46.30
802;DHT22;383;48.766;9.270;2022-08-25T16:56:34;31.60;46.90
802;DHT22;383;48.766;9.270;2022-08-25T16:59:03;31.50;47.40
802;DHT22;383;48.766;9.270;2022-08-25T17:01:31;31.40;46.80
802;DHT22;383;48.766;9.270;2022-08-25T17:04:00;31.20;47.80
802;DHT22;383;48.766;9.270;2022-08-25T17:06:31;31.10;47.70
802;DHT22;383;48.766;9.270;2022-08-25T17:09:00;31.00;48.70
802;DHT22;383;48.766;9.270;2022-08-25T17:11:28;30.90;48.60
802;DHT22;383;48.766;9.270;2022-08-25T17:13:57;30.90;48.60
802;DHT22;383;48.766;9.270;2022-08-25T17:16:27;30.80;48.70
802;DHT22;383;48.766;9.270;2022-08-25T17:18:56;30.70;48.70
802;DHT22;383;48.766;9.270;2022-08-25T17:21:23;30.60;48.90
802;DHT22;383;48.766;9.270;2022-08-25T17:23:52;30.40;49.40
802;DHT22;383;48.766;9.270;2022-08-25T17:26:21;30.40;49.40
802;DHT22;383;48.766;9.270;2022-08-25T17:28:48;30.30;49.30
802;DHT22;383;48.766;9.270;2022-08-25T17:31:15;30.20;49.90
802;DHT22;383;48.766;9.270;2022-08-25T17:33:42;30.00;50.40